Airfield :
LOGIN :

Register | Disclaimer

   EN    FR    IT 

 










Legend :    VFR   Marginal VFR   IFR   Intensive IFR   Very Intensive IFR
Visi :
Ceiling :
>= 8 km
>= 3000ft
5 to 8 km
1000 to 3000 ft
1500m to 5 km
500 to 1000 ft
800 to 1500m
200 to 500 ft
< 800m
< 200 ft
Symbols :   Thunderstorms  Fog  Heavy snow  Heavy precipitations  Wind > 20 kt
SIGMETs :     Misc.  Thunderstorms  Icing  Turbulence  Mountain Waves  Volcanic Ashes






- Airport Elevation : 622 ft
- IATA code : BRS


EGGD - Bristol Int.

CURRENT METAR :
  • 190950Z AUTO 09005KT 010V130 9999 OVC013 13/10 Q1015

EXPIRED METARs :
  • 190920Z AUTO 10005KT 050V120 9999 OVC012 13/10 Q1015
  • 190850Z AUTO 10005KT 9999 OVC011 12/09 Q1015
  • 190820Z AUTO 07005KT 020V110 9999 OVC010 12/09 Q1015
  • 190750Z AUTO 08004KT 9999 OVC011 12/09 Q1015
  • 190720Z AUTO 08005KT 9999 OVC011 12/09 Q1016

TAF AMD TAF EGGD
Valid from the 19 at 09:00 until the 20 at 06:00 UTC


190944Z 1909/2006 09006KT 9999 BKN014
BECMG 1909/1912 BKN016
PROB30
TEMPO 1914/1917 8000 -RA
PROB40
TEMPO 1916/1922 BKN012
PROB30
TEMPO 1920/1924 5000 SHRA
BECMG 1922/2001 BKN008
TEMPO 2000/2006 4000 -RADZ
ATIS : +44 1275 473 666



MET'MAP, your aeronautical weather chart ! - Copyright ORBIFLY December 2007 - Disclaimer

ORBIFLY MET'MAP TEAM :

Programming & Development : Alexandra Zaïnal
Concept & original design : Baudouin d'Aumeries
Assistance for programming : Marc-Olivier Méhu
Technical & hardware support : Manuel Goepfert

Contact : metmap@orbifly.com




SOURCES & CREDITS :

   NOAA